sensor_id;sensor_type;location;lat;lon;timestamp;P1;durP1;ratioP1;P2;durP2;ratioP2
71148;SDS011;59072;42.144;25.200;2023-08-01T00:00:41;13.23;;;11.13;;
71148;SDS011;59072;42.144;25.200;2023-08-01T00:03:06;14.13;;;11.43;;
71148;SDS011;59072;42.144;25.200;2023-08-01T00:07:59;13.13;;;10.20;;
71148;SDS011;59072;42.144;25.200;2023-08-01T00:10:24;13.10;;;10.98;;
71148;SDS011;59072;42.144;25.200;2023-08-01T00:12:50;13.43;;;10.93;;
71148;SDS011;59072;42.144;25.200;2023-08-01T00:15:17;12.43;;;11.00;;
71148;SDS011;59072;42.144;25.200;2023-08-01T00:17:43;13.60;;;11.20;;
71148;SDS011;59072;42.144;25.200;2023-08-01T00:20:08;17.80;;;13.52;;
71148;SDS011;59072;42.144;25.200;2023-08-01T00:22:34;16.38;;;12.73;;
71148;SDS011;59072;42.144;25.200;2023-08-01T00:25:00;16.23;;;12.43;;
71148;SDS011;59072;42.144;25.200;2023-08-01T00:27:25;15.57;;;12.20;;
71148;SDS011;59072;42.144;25.200;2023-08-01T00:29:51;16.40;;;13.02;;
71148;SDS011;59072;42.144;25.200;2023-08-01T00:32:16;15.55;;;12.73;;
71148;SDS011;59072;42.144;25.200;2023-08-01T00:34:41;15.48;;;13.05;;
71148;SDS011;59072;42.144;25.200;2023-08-01T00:37:07;15.38;;;12.95;;
71148;SDS011;59072;42.144;25.200;2023-08-01T00:39:32;15.13;;;12.65;;
71148;SDS011;59072;42.144;25.200;2023-08-01T00:41:58;16.13;;;13.50;;
71148;SDS011;59072;42.144;25.200;2023-08-01T00:44:24;14.02;;;12.52;;
71148;SDS011;59072;42.144;25.200;2023-08-01T00:46:49;16.77;;;12.65;;
71148;SDS011;59072;42.144;25.200;2023-08-01T00:49:15;15.10;;;12.65;;
71148;SDS011;59072;42.144;25.200;2023-08-01T00:51:40;15.25;;;11.80;;
71148;SDS011;59072;42.144;25.200;2023-08-01T00:54:06;14.38;;;11.90;;
71148;SDS011;59072;42.144;25.200;2023-08-01T00:56:32;14.48;;;12.48;;
71148;SDS011;59072;42.144;25.200;2023-08-01T00:58:58;15.02;;;12.85;;
71148;SDS011;59072;42.144;25.200;2023-08-01T01:01:23;16.73;;;12.57;;
71148;SDS011;59072;42.144;25.200;2023-08-01T01:03:49;16.05;;;13.57;;
71148;SDS011;59072;42.144;25.200;2023-08-01T01:06:20;14.95;;;13.02;;
71148;SDS011;59072;42.144;25.200;2023-08-01T01:08:50;16.80;;;13.40;;
71148;SDS011;59072;42.144;25.200;2023-08-01T01:11:16;14.75;;;13.10;;
71148;SDS011;59072;42.144;25.200;2023-08-01T01:13:41;16.20;;;13.70;;
71148;SDS011;59072;42.144;25.200;2023-08-01T01:16:07;18.45;;;12.80;;
71148;SDS011;59072;42.144;25.200;2023-08-01T01:18:32;14.57;;;12.02;;
71148;SDS011;59072;42.144;25.200;2023-08-01T01:20:58;16.38;;;12.32;;
71148;SDS011;59072;42.144;25.200;2023-08-01T01:23:23;14.05;;;11.63;;
71148;SDS011;59072;42.144;25.200;2023-08-01T01:25:50;14.85;;;12.02;;
71148;SDS011;59072;42.144;25.200;2023-08-01T01:28:17;14.18;;;12.23;;
71148;SDS011;59072;42.144;25.200;2023-08-01T01:30:43;14.40;;;11.60;;
71148;SDS011;59072;42.144;25.200;2023-08-01T01:33:10;14.35;;;11.85;;
71148;SDS011;59072;42.144;25.200;2023-08-01T01:35:39;14.18;;;12.45;;
71148;SDS011;59072;42.144;25.200;2023-08-01T01:40:30;15.65;;;11.38;;
71148;SDS011;59072;42.144;25.200;2023-08-01T01:42:56;13.05;;;11.35;;
71148;SDS011;59072;42.144;25.200;2023-08-01T01:45:21;12.85;;;11.50;;
71148;SDS011;59072;42.144;25.200;2023-08-01T01:47:47;14.00;;;11.85;;
71148;SDS011;59072;42.144;25.200;2023-08-01T01:50:12;12.95;;;10.63;;
71148;SDS011;59072;42.144;25.200;2023-08-01T01:52:37;13.82;;;10.57;;
71148;SDS011;59072;42.144;25.200;2023-08-01T01:55:03;14.63;;;11.43;;
71148;SDS011;59072;42.144;25.200;2023-08-01T01:57:29;13.07;;;11.05;;
71148;SDS011;59072;42.144;25.200;2023-08-01T01:59:54;13.32;;;10.52;;
71148;SDS011;59072;42.144;25.200;2023-08-01T02:02:19;15.95;;;11.05;;
71148;SDS011;59072;42.144;25.200;2023-08-01T02:04:49;14.40;;;10.93;;
71148;SDS011;59072;42.144;25.200;2023-08-01T02:07:15;12.95;;;10.50;;
71148;SDS011;59072;42.144;25.200;2023-08-01T02:09:40;12.35;;;10.48;;
71148;SDS011;59072;42.144;25.200;2023-08-01T02:12:06;12.93;;;10.85;;
71148;SDS011;59072;42.144;25.200;2023-08-01T02:14:34;13.88;;;11.35;;
71148;SDS011;59072;42.144;25.200;2023-08-01T02:17:00;12.98;;;10.65;;
71148;SDS011;59072;42.144;25.200;2023-08-01T02:19:25;12.85;;;10.32;;
71148;SDS011;59072;42.144;25.200;2023-08-01T02:21:53;13.40;;;10.30;;
71148;SDS011;59072;42.144;25.200;2023-08-01T02:24:19;13.25;;;11.18;;
71148;SDS011;59072;42.144;25.200;2023-08-01T02:26:44;12.90;;;11.00;;
71148;SDS011;59072;42.144;25.200;2023-08-01T02:29:10;13.63;;;10.95;;
71148;SDS011;59072;42.144;25.200;2023-08-01T02:31:35;13.73;;;11.75;;
71148;SDS011;59072;42.144;25.200;2023-08-01T02:34:01;14.93;;;11.27;;
71148;SDS011;59072;42.144;25.200;2023-08-01T02:36:26;13.05;;;11.32;;
71148;SDS011;59072;42.144;25.200;2023-08-01T02:38:51;13.40;;;11.32;;
71148;SDS011;59072;42.144;25.200;2023-08-01T02:41:17;12.95;;;11.20;;
71148;SDS011;59072;42.144;25.200;2023-08-01T02:43:42;13.20;;;10.98;;
71148;SDS011;59072;42.144;25.200;2023-08-01T02:46:08;15.68;;;11.45;;
71148;SDS011;59072;42.144;25.200;2023-08-01T02:48:33;13.18;;;10.98;;
71148;SDS011;59072;42.144;25.200;2023-08-01T02:51:00;13.20;;;11.23;;
71148;SDS011;59072;42.144;25.200;2023-08-01T02:53:26;12.95;;;10.90;;
71148;SDS011;59072;42.144;25.200;2023-08-01T02:55:51;13.85;;;11.07;;
71148;SDS011;59072;42.144;25.200;2023-08-01T02:58:16;15.40;;;11.05;;
71148;SDS011;59072;42.144;25.200;2023-08-01T03:00:42;15.70;;;11.45;;
71148;SDS011;59072;42.144;25.200;2023-08-01T03:03:07;18.77;;;12.35;;
71148;SDS011;59072;42.144;25.200;2023-08-01T03:05:35;14.93;;;12.30;;
71148;SDS011;59072;42.144;25.200;2023-08-01T03:08:01;15.40;;;12.10;;
71148;SDS011;59072;42.144;25.200;2023-08-01T03:10:27;12.20;;;10.40;;
71148;SDS011;59072;42.144;25.200;2023-08-01T03:12:52;15.63;;;11.27;;
71148;SDS011;59072;42.144;25.200;2023-08-01T03:15:18;13.20;;;10.35;;
71148;SDS011;59072;42.144;25.200;2023-08-01T03:17:43;14.98;;;10.77;;
71148;SDS011;59072;42.144;25.200;2023-08-01T03:20:09;13.85;;;11.10;;
71148;SDS011;59072;42.144;25.200;2023-08-01T03:22:37;12.23;;;10.73;;
71148;SDS011;59072;42.144;25.200;2023-08-01T03:25:04;13.63;;;11.02;;
71148;SDS011;59072;42.144;25.200;2023-08-01T03:29:58;13.40;;;11.63;;
71148;SDS011;59072;42.144;25.200;2023-08-01T03:32:23;14.25;;;11.80;;
71148;SDS011;59072;42.144;25.200;2023-08-01T03:34:49;13.95;;;11.45;;
71148;SDS011;59072;42.144;25.200;2023-08-01T03:37:14;13.75;;;11.55;;
71148;SDS011;59072;42.144;25.200;2023-08-01T03:39:40;13.65;;;11.48;;
71148;SDS011;59072;42.144;25.200;2023-08-01T03:42:06;15.88;;;12.18;;
71148;SDS011;59072;42.144;25.200;2023-08-01T03:44:31;14.88;;;13.00;;
71148;SDS011;59072;42.144;25.200;2023-08-01T03:46:57;15.05;;;11.70;;
71148;SDS011;59072;42.144;25.200;2023-08-01T03:49:22;14.85;;;11.75;;
71148;SDS011;59072;42.144;25.200;2023-08-01T03:51:48;13.77;;;11.90;;
71148;SDS011;59072;42.144;25.200;2023-08-01T03:54:13;17.08;;;11.95;;
71148;SDS011;59072;42.144;25.200;2023-08-01T03:56:39;14.13;;;12.05;;
71148;SDS011;59072;42.144;25.200;2023-08-01T03:59:08;14.90;;;11.30;;
71148;SDS011;59072;42.144;25.200;2023-08-01T04:01:33;15.63;;;12.65;;
71148;SDS011;59072;42.144;25.200;2023-08-01T04:03:58;16.85;;;13.23;;
71148;SDS011;59072;42.144;25.200;2023-08-01T04:06:24;15.82;;;11.98;;
71148;SDS011;59072;42.144;25.200;2023-08-01T04:08:49;19.40;;;13.82;;
71148;SDS011;59072;42.144;25.200;2023-08-01T04:11:15;19.48;;;15.05;;
71148;SDS011;59072;42.144;25.200;2023-08-01T04:13:40;18.75;;;14.60;;
71148;SDS011;59072;42.144;25.200;2023-08-01T04:16:05;17.92;;;13.38;;
71148;SDS011;59072;42.144;25.200;2023-08-01T04:18:31;17.33;;;13.18;;
71148;SDS011;59072;42.144;25.200;2023-08-01T04:20:56;17.75;;;13.70;;
71148;SDS011;59072;42.144;25.200;2023-08-01T04:23:22;16.13;;;13.15;;
71148;SDS011;59072;42.144;25.200;2023-08-01T04:25:47;15.30;;;13.27;;
71148;SDS011;59072;42.144;25.200;2023-08-01T04:28:12;17.52;;;14.05;;
71148;SDS011;59072;42.144;25.200;2023-08-01T04:30:38;15.48;;;13.77;;
71148;SDS011;59072;42.144;25.200;2023-08-01T04:33:03;16.55;;;14.85;;
71148;SDS011;59072;42.144;25.200;2023-08-01T04:35:29;17.27;;;14.93;;
71148;SDS011;59072;42.144;25.200;2023-08-01T04:37:55;17.30;;;14.67;;
71148;SDS011;59072;42.144;25.200;2023-08-01T04:40:20;18.52;;;15.32;;
71148;SDS011;59072;42.144;25.200;2023-08-01T04:42:46;16.70;;;13.63;;
71148;SDS011;59072;42.144;25.200;2023-08-01T04:45:13;18.15;;;15.20;;
71148;SDS011;59072;42.144;25.200;2023-08-01T04:47:39;17.60;;;15.63;;
71148;SDS011;59072;42.144;25.200;2023-08-01T04:50:06;19.08;;;15.38;;
71148;SDS011;59072;42.144;25.200;2023-08-01T04:52:32;20.92;;;16.88;;
71148;SDS011;59072;42.144;25.200;2023-08-01T04:54:58;18.30;;;16.05;;
71148;SDS011;59072;42.144;25.200;2023-08-01T04:57:23;18.88;;;16.88;;
71148;SDS011;59072;42.144;25.200;2023-08-01T04:59:51;21.73;;;17.25;;
71148;SDS011;59072;42.144;25.200;2023-08-01T05:02:16;19.23;;;16.83;;
71148;SDS011;59072;42.144;25.200;2023-08-01T05:04:41;20.75;;;18.05;;
71148;SDS011;59072;42.144;25.200;2023-08-01T05:07:07;23.75;;;19.20;;
71148;SDS011;59072;42.144;25.200;2023-08-01T05:09:32;20.40;;;17.70;;
71148;SDS011;59072;42.144;25.200;2023-08-01T05:11:58;21.80;;;17.98;;
71148;SDS011;59072;42.144;25.200;2023-08-01T05:14:23;22.05;;;18.10;;
71148;SDS011;59072;42.144;25.200;2023-08-01T05:16:49;25.95;;;21.02;;
71148;SDS011;59072;42.144;25.200;2023-08-01T05:19:14;22.83;;;19.15;;
71148;SDS011;59072;42.144;25.200;2023-08-01T05:21:39;22.65;;;19.50;;
71148;SDS011;59072;42.144;25.200;2023-08-01T05:24:05;26.55;;;19.80;;
71148;SDS011;59072;42.144;25.200;2023-08-01T05:26:30;23.42;;;19.50;;
71148;SDS011;59072;42.144;25.200;2023-08-01T05:28:56;21.83;;;19.33;;
71148;SDS011;59072;42.144;25.200;2023-08-01T05:31:21;24.00;;;19.92;;
71148;SDS011;59072;42.144;25.200;2023-08-01T05:33:46;18.83;;;16.85;;
71148;SDS011;59072;42.144;25.200;2023-08-01T05:36:12;17.02;;;14.23;;
71148;SDS011;59072;42.144;25.200;2023-08-01T05:38:37;14.35;;;12.55;;
71148;SDS011;59072;42.144;25.200;2023-08-01T05:41:05;14.25;;;12.23;;
71148;SDS011;59072;42.144;25.200;2023-08-01T05:43:30;12.82;;;9.13;;
71148;SDS011;59072;42.144;25.200;2023-08-01T05:45:55;10.38;;;9.27;;
71148;SDS011;59072;42.144;25.200;2023-08-01T05:48:21;11.68;;;8.88;;
71148;SDS011;59072;42.144;25.200;2023-08-01T05:50:46;14.70;;;8.95;;
71148;SDS011;59072;42.144;25.200;2023-08-01T05:53:12;10.82;;;9.57;;
71148;SDS011;59072;42.144;25.200;2023-08-01T05:55:37;10.90;;;9.18;;
71148;SDS011;59072;42.144;25.200;2023-08-01T05:58:02;10.45;;;8.75;;
71148;SDS011;59072;42.144;25.200;2023-08-01T06:00:28;10.10;;;7.85;;
71148;SDS011;59072;42.144;25.200;2023-08-01T06:02:55;8.63;;;7.03;;
71148;SDS011;59072;42.144;25.200;2023-08-01T06:05:20;9.57;;;7.13;;
71148;SDS011;59072;42.144;25.200;2023-08-01T06:07:46;8.70;;;7.40;;
71148;SDS011;59072;42.144;25.200;2023-08-01T06:10:11;8.75;;;7.43;;
71148;SDS011;59072;42.144;25.200;2023-08-01T06:12:37;10.57;;;7.18;;
71148;SDS011;59072;42.144;25.200;2023-08-01T06:15:03;9.18;;;7.53;;
71148;SDS011;59072;42.144;25.200;2023-08-01T06:17:29;9.43;;;6.50;;
71148;SDS011;59072;42.144;25.200;2023-08-01T06:19:54;8.68;;;6.45;;
71148;SDS011;59072;42.144;25.200;2023-08-01T06:22:20;10.60;;;5.70;;
71148;SDS011;59072;42.144;25.200;2023-08-01T06:24:45;10.43;;;5.45;;
71148;SDS011;59072;42.144;25.200;2023-08-01T06:27:10;7.07;;;5.07;;
71148;SDS011;59072;42.144;25.200;2023-08-01T06:29:36;8.15;;;5.85;;
71148;SDS011;59072;42.144;25.200;2023-08-01T06:32:02;7.57;;;5.82;;
71148;SDS011;59072;42.144;25.200;2023-08-01T06:34:28;7.63;;;6.18;;
71148;SDS011;59072;42.144;25.200;2023-08-01T06:36:53;7.68;;;6.40;;
71148;SDS011;59072;42.144;25.200;2023-08-01T06:39:19;7.35;;;5.03;;
71148;SDS011;59072;42.144;25.200;2023-08-01T06:41:44;6.65;;;5.03;;
71148;SDS011;59072;42.144;25.200;2023-08-01T06:44:10;8.30;;;5.07;;
71148;SDS011;59072;42.144;25.200;2023-08-01T06:46:35;7.70;;;4.80;;
71148;SDS011;59072;42.144;25.200;2023-08-01T06:49:00;6.65;;;5.05;;
71148;SDS011;59072;42.144;25.200;2023-08-01T06:51:26;8.75;;;5.85;;
71148;SDS011;59072;42.144;25.200;2023-08-01T06:53:51;5.80;;;4.90;;
71148;SDS011;59072;42.144;25.200;2023-08-01T06:56:17;7.22;;;5.45;;
71148;SDS011;59072;42.144;25.200;2023-08-01T06:58:43;5.50;;;4.60;;
71148;SDS011;59072;42.144;25.200;2023-08-01T07:01:08;7.60;;;5.10;;
71148;SDS011;59072;42.144;25.200;2023-08-01T07:03:33;7.28;;;5.22;;
71148;SDS011;59072;42.144;25.200;2023-08-01T07:05:59;8.73;;;6.80;;
71148;SDS011;59072;42.144;25.200;2023-08-01T07:08:25;9.52;;;5.20;;
71148;SDS011;59072;42.144;25.200;2023-08-01T07:13:17;7.40;;;4.70;;
71148;SDS011;59072;42.144;25.200;2023-08-01T07:15:44;7.77;;;5.13;;
71148;SDS011;59072;42.144;25.200;2023-08-01T07:18:10;7.90;;;4.97;;
71148;SDS011;59072;42.144;25.200;2023-08-01T07:20:35;6.75;;;4.30;;
71148;SDS011;59072;42.144;25.200;2023-08-01T07:23:01;7.25;;;3.90;;
71148;SDS011;59072;42.144;25.200;2023-08-01T07:25:29;6.28;;;4.00;;
71148;SDS011;59072;42.144;25.200;2023-08-01T07:27:57;6.13;;;3.28;;
71148;SDS011;59072;42.144;25.200;2023-08-01T07:30:22;5.30;;;3.42;;
71148;SDS011;59072;42.144;25.200;2023-08-01T07:32:48;5.93;;;3.88;;
71148;SDS011;59072;42.144;25.200;2023-08-01T07:35:16;5.55;;;4.05;;
71148;SDS011;59072;42.144;25.200;2023-08-01T07:37:41;6.47;;;4.45;;
71148;SDS011;59072;42.144;25.200;2023-08-01T07:40:07;5.72;;;3.88;;
71148;SDS011;59072;42.144;25.200;2023-08-01T07:42:33;5.47;;;3.22;;
71148;SDS011;59072;42.144;25.200;2023-08-01T07:44:58;4.22;;;3.00;;
71148;SDS011;59072;42.144;25.200;2023-08-01T07:47:24;5.20;;;3.47;;
71148;SDS011;59072;42.144;25.200;2023-08-01T07:49:49;4.28;;;3.25;;
71148;SDS011;59072;42.144;25.200;2023-08-01T07:52:15;5.55;;;3.20;;
71148;SDS011;59072;42.144;25.200;2023-08-01T07:54:40;4.80;;;3.30;;
71148;SDS011;59072;42.144;25.200;2023-08-01T07:57:06;4.80;;;3.35;;
71148;SDS011;59072;42.144;25.200;2023-08-01T07:59:31;4.25;;;3.22;;
71148;SDS011;59072;42.144;25.200;2023-08-01T08:01:57;5.45;;;3.60;;
71148;SDS011;59072;42.144;25.200;2023-08-01T08:04:24;7.03;;;3.20;;
71148;SDS011;59072;42.144;25.200;2023-08-01T08:06:57;4.95;;;2.88;;
71148;SDS011;59072;42.144;25.200;2023-08-01T08:09:25;5.93;;;3.20;;
71148;SDS011;59072;42.144;25.200;2023-08-01T08:11:52;4.70;;;3.08;;
71148;SDS011;59072;42.144;25.200;2023-08-01T08:14:17;4.28;;;2.97;;
71148;SDS011;59072;42.144;25.200;2023-08-01T08:16:42;3.72;;;2.80;;
71148;SDS011;59072;42.144;25.200;2023-08-01T08:19:08;5.35;;;3.13;;
71148;SDS011;59072;42.144;25.200;2023-08-01T08:21:34;5.03;;;3.03;;
71148;SDS011;59072;42.144;25.200;2023-08-01T08:23:59;5.15;;;3.20;;
71148;SDS011;59072;42.144;25.200;2023-08-01T08:26:25;5.28;;;2.80;;
71148;SDS011;59072;42.144;25.200;2023-08-01T08:28:50;4.50;;;3.00;;
71148;SDS011;59072;42.144;25.200;2023-08-01T08:31:16;5.20;;;3.10;;
71148;SDS011;59072;42.144;25.200;2023-08-01T08:33:41;4.25;;;3.17;;
71148;SDS011;59072;42.144;25.200;2023-08-01T08:36:09;7.63;;;3.47;;
71148;SDS011;59072;42.144;25.200;2023-08-01T08:38:34;4.63;;;3.00;;
71148;SDS011;59072;42.144;25.200;2023-08-01T08:41:10;4.45;;;3.00;;
71148;SDS011;59072;42.144;25.200;2023-08-01T08:43:38;5.07;;;3.28;;
71148;SDS011;59072;42.144;25.200;2023-08-01T08:46:04;4.30;;;2.95;;
71148;SDS011;59072;42.144;25.200;2023-08-01T08:48:30;4.25;;;2.92;;
71148;SDS011;59072;42.144;25.200;2023-08-01T08:51:05;4.43;;;2.90;;
71148;SDS011;59072;42.144;25.200;2023-08-01T08:53:31;4.13;;;3.08;;
71148;SDS011;59072;42.144;25.200;2023-08-01T08:56:00;5.88;;;3.15;;
71148;SDS011;59072;42.144;25.200;2023-08-01T08:58:26;5.38;;;2.92;;
71148;SDS011;59072;42.144;25.200;2023-08-01T09:00:54;5.28;;;2.90;;
71148;SDS011;59072;42.144;25.200;2023-08-01T09:03:20;4.00;;;2.67;;
71148;SDS011;59072;42.144;25.200;2023-08-01T09:08:24;4.53;;;3.03;;
71148;SDS011;59072;42.144;25.200;2023-08-01T09:10:54;5.35;;;3.00;;
71148;SDS011;59072;42.144;25.200;2023-08-01T09:13:20;3.65;;;2.70;;
71148;SDS011;59072;42.144;25.200;2023-08-01T09:15:45;4.50;;;2.72;;
71148;SDS011;59072;42.144;25.200;2023-08-01T09:18:14;4.25;;;2.70;;
71148;SDS011;59072;42.144;25.200;2023-08-01T09:20:42;4.47;;;2.70;;
71148;SDS011;59072;42.144;25.200;2023-08-01T09:23:09;5.75;;;2.95;;
71148;SDS011;59072;42.144;25.200;2023-08-01T09:25:36;4.80;;;3.00;;
71148;SDS011;59072;42.144;25.200;2023-08-01T09:28:01;4.35;;;2.95;;
71148;SDS011;59072;42.144;25.200;2023-08-01T09:30:27;4.80;;;3.08;;
71148;SDS011;59072;42.144;25.200;2023-08-01T09:32:54;3.67;;;2.80;;
71148;SDS011;59072;42.144;25.200;2023-08-01T09:35:20;3.58;;;2.80;;
71148;SDS011;59072;42.144;25.200;2023-08-01T09:37:46;4.73;;;2.90;;
71148;SDS011;59072;42.144;25.200;2023-08-01T09:40:14;4.68;;;2.80;;
71148;SDS011;59072;42.144;25.200;2023-08-01T09:42:44;4.07;;;2.30;;
71148;SDS011;59072;42.144;25.200;2023-08-01T09:45:13;3.35;;;2.40;;
71148;SDS011;59072;42.144;25.200;2023-08-01T09:47:43;3.90;;;2.85;;
71148;SDS011;59072;42.144;25.200;2023-08-01T09:50:09;4.30;;;2.90;;
71148;SDS011;59072;42.144;25.200;2023-08-01T09:52:44;5.97;;;2.83;;
71148;SDS011;59072;42.144;25.200;2023-08-01T09:55:17;3.17;;;2.28;;
71148;SDS011;59072;42.144;25.200;2023-08-01T09:57:43;3.97;;;2.88;;
71148;SDS011;59072;42.144;25.200;2023-08-01T10:00:13;4.03;;;2.90;;
71148;SDS011;59072;42.144;25.200;2023-08-01T10:02:39;3.90;;;2.95;;
71148;SDS011;59072;42.144;25.200;2023-08-01T10:05:08;5.20;;;3.15;;
71148;SDS011;59072;42.144;25.200;2023-08-01T10:07:35;4.78;;;3.03;;
71148;SDS011;59072;42.144;25.200;2023-08-01T10:10:06;4.70;;;3.30;;
71148;SDS011;59072;42.144;25.200;2023-08-01T10:12:32;5.72;;;3.00;;
71148;SDS011;59072;42.144;25.200;2023-08-01T10:14:58;4.65;;;3.17;;
71148;SDS011;59072;42.144;25.200;2023-08-01T10:17:25;3.55;;;3.03;;
71148;SDS011;59072;42.144;25.200;2023-08-01T10:19:51;4.60;;;3.00;;
71148;SDS011;59072;42.144;25.200;2023-08-01T10:22:18;4.90;;;3.28;;
71148;SDS011;59072;42.144;25.200;2023-08-01T10:24:45;5.80;;;3.38;;
71148;SDS011;59072;42.144;25.200;2023-08-01T10:29:44;5.03;;;3.70;;
71148;SDS011;59072;42.144;25.200;2023-08-01T10:32:09;4.65;;;3.50;;
71148;SDS011;59072;42.144;25.200;2023-08-01T10:34:38;4.93;;;3.60;;
71148;SDS011;59072;42.144;25.200;2023-08-01T10:37:03;4.57;;;3.25;;
71148;SDS011;59072;42.144;25.200;2023-08-01T10:39:29;4.45;;;3.38;;
71148;SDS011;59072;42.144;25.200;2023-08-01T10:41:58;4.60;;;3.58;;
71148;SDS011;59072;42.144;25.200;2023-08-01T10:44:25;4.57;;;3.47;;
71148;SDS011;59072;42.144;25.200;2023-08-01T10:46:55;4.40;;;3.30;;
71148;SDS011;59072;42.144;25.200;2023-08-01T10:49:32;5.10;;;3.70;;
71148;SDS011;59072;42.144;25.200;2023-08-01T10:52:00;5.13;;;3.85;;
71148;SDS011;59072;42.144;25.200;2023-08-01T10:54:25;6.85;;;3.95;;
71148;SDS011;59072;42.144;25.200;2023-08-01T10:56:52;6.95;;;4.20;;
71148;SDS011;59072;42.144;25.200;2023-08-01T10:59:18;4.93;;;3.63;;
71148;SDS011;59072;42.144;25.200;2023-08-01T11:01:49;5.28;;;4.15;;
71148;SDS011;59072;42.144;25.200;2023-08-01T11:04:19;5.50;;;3.85;;
71148;SDS011;59072;42.144;25.200;2023-08-01T11:06:47;4.85;;;4.03;;
71148;SDS011;59072;42.144;25.200;2023-08-01T11:09:15;5.20;;;4.30;;
71148;SDS011;59072;42.144;25.200;2023-08-01T11:11:45;5.28;;;4.10;;
71148;SDS011;59072;42.144;25.200;2023-08-01T11:14:14;6.15;;;4.20;;
71148;SDS011;59072;42.144;25.200;2023-08-01T11:16:39;6.78;;;4.20;;
71148;SDS011;59072;42.144;25.200;2023-08-01T11:19:05;5.72;;;4.68;;
71148;SDS011;59072;42.144;25.200;2023-08-01T11:21:31;4.72;;;3.65;;
71148;SDS011;59072;42.144;25.200;2023-08-01T11:24:00;5.90;;;4.10;;
71148;SDS011;59072;42.144;25.200;2023-08-01T11:26:32;6.05;;;3.80;;
71148;SDS011;59072;42.144;25.200;2023-08-01T11:29:00;6.20;;;4.53;;
71148;SDS011;59072;42.144;25.200;2023-08-01T11:31:27;6.38;;;4.07;;
71148;SDS011;59072;42.144;25.200;2023-08-01T11:33:59;5.30;;;3.90;;
71148;SDS011;59072;42.144;25.200;2023-08-01T11:36:25;7.05;;;3.85;;
71148;SDS011;59072;42.144;25.200;2023-08-01T11:38:52;5.18;;;3.70;;
71148;SDS011;59072;42.144;25.200;2023-08-01T11:41:18;5.22;;;4.03;;
71148;SDS011;59072;42.144;25.200;2023-08-01T11:43:44;5.95;;;4.50;;
71148;SDS011;59072;42.144;25.200;2023-08-01T11:46:09;6.40;;;4.05;;
71148;SDS011;59072;42.144;25.200;2023-08-01T11:48:35;5.57;;;4.35;;
71148;SDS011;59072;42.144;25.200;2023-08-01T11:51:01;5.10;;;4.10;;
71148;SDS011;59072;42.144;25.200;2023-08-01T11:53:27;7.25;;;5.13;;
71148;SDS011;59072;42.144;25.200;2023-08-01T11:55:54;6.05;;;4.20;;
71148;SDS011;59072;42.144;25.200;2023-08-01T11:58:28;5.20;;;4.22;;
71148;SDS011;59072;42.144;25.200;2023-08-01T12:01:08;9.52;;;5.15;;
71148;SDS011;59072;42.144;25.200;2023-08-01T12:03:45;5.68;;;4.28;;
71148;SDS011;59072;42.144;25.200;2023-08-01T12:06:15;6.85;;;4.40;;
71148;SDS011;59072;42.144;25.200;2023-08-01T12:08:42;6.22;;;4.40;;
71148;SDS011;59072;42.144;25.200;2023-08-01T12:13:48;6.43;;;4.45;;
71148;SDS011;59072;42.144;25.200;2023-08-01T12:16:24;6.70;;;4.60;;
71148;SDS011;59072;42.144;25.200;2023-08-01T12:18:49;6.93;;;4.65;;
71148;SDS011;59072;42.144;25.200;2023-08-01T12:21:15;8.38;;;4.88;;
71148;SDS011;59072;42.144;25.200;2023-08-01T12:23:40;6.35;;;5.00;;
71148;SDS011;59072;42.144;25.200;2023-08-01T12:26:06;5.68;;;4.25;;
71148;SDS011;59072;42.144;25.200;2023-08-01T12:28:32;6.57;;;4.57;;
71148;SDS011;59072;42.144;25.200;2023-08-01T12:31:00;5.50;;;4.28;;
71148;SDS011;59072;42.144;25.200;2023-08-01T12:33:26;6.93;;;4.60;;
71148;SDS011;59072;42.144;25.200;2023-08-01T12:35:51;6.00;;;4.57;;
71148;SDS011;59072;42.144;25.200;2023-08-01T12:38:19;6.65;;;4.70;;
71148;SDS011;59072;42.144;25.200;2023-08-01T12:40:45;6.25;;;4.65;;
71148;SDS011;59072;42.144;25.200;2023-08-01T12:43:11;7.32;;;4.20;;
71148;SDS011;59072;42.144;25.200;2023-08-01T12:45:37;5.70;;;4.70;;
71148;SDS011;59072;42.144;25.200;2023-08-01T12:48:04;6.72;;;4.60;;
71148;SDS011;59072;42.144;25.200;2023-08-01T12:50:30;6.32;;;5.40;;
71148;SDS011;59072;42.144;25.200;2023-08-01T12:52:55;6.30;;;5.18;;
71148;SDS011;59072;42.144;25.200;2023-08-01T12:55:23;6.97;;;5.20;;
71148;SDS011;59072;42.144;25.200;2023-08-01T12:57:48;7.63;;;5.03;;
71148;SDS011;59072;42.144;25.200;2023-08-01T13:00:14;6.13;;;4.88;;
71148;SDS011;59072;42.144;25.200;2023-08-01T13:02:39;6.82;;;5.00;;
71148;SDS011;59072;42.144;25.200;2023-08-01T13:05:05;6.35;;;4.57;;
71148;SDS011;59072;42.144;25.200;2023-08-01T13:07:30;7.72;;;4.50;;
71148;SDS011;59072;42.144;25.200;2023-08-01T13:09:59;5.93;;;4.53;;
71148;SDS011;59072;42.144;25.200;2023-08-01T13:12:28;6.13;;;4.90;;
71148;SDS011;59072;42.144;25.200;2023-08-01T13:14:58;7.93;;;5.53;;
71148;SDS011;59072;42.144;25.200;2023-08-01T13:17:26;6.00;;;4.70;;
71148;SDS011;59072;42.144;25.200;2023-08-01T13:19:51;6.82;;;5.28;;
71148;SDS011;59072;42.144;25.200;2023-08-01T13:22:17;7.90;;;4.78;;
71148;SDS011;59072;42.144;25.200;2023-08-01T13:24:44;5.68;;;4.85;;
71148;SDS011;59072;42.144;25.200;2023-08-01T13:27:11;6.57;;;4.75;;
71148;SDS011;59072;42.144;25.200;2023-08-01T13:29:37;6.68;;;4.97;;
71148;SDS011;59072;42.144;25.200;2023-08-01T13:32:02;6.93;;;5.18;;
71148;SDS011;59072;42.144;25.200;2023-08-01T13:34:28;6.07;;;4.93;;
71148;SDS011;59072;42.144;25.200;2023-08-01T13:36:56;6.78;;;5.05;;
71148;SDS011;59072;42.144;25.200;2023-08-01T13:39:22;6.10;;;4.88;;
71148;SDS011;59072;42.144;25.200;2023-08-01T13:41:49;5.60;;;4.57;;
71148;SDS011;59072;42.144;25.200;2023-08-01T13:44:15;5.95;;;4.97;;
71148;SDS011;59072;42.144;25.200;2023-08-01T13:46:40;5.63;;;4.88;;
71148;SDS011;59072;42.144;25.200;2023-08-01T13:49:06;5.53;;;5.00;;
71148;SDS011;59072;42.144;25.200;2023-08-01T13:51:35;7.15;;;5.22;;
71148;SDS011;59072;42.144;25.200;2023-08-01T13:54:01;5.80;;;5.15;;
71148;SDS011;59072;42.144;25.200;2023-08-01T13:56:26;6.85;;;4.85;;
71148;SDS011;59072;42.144;25.200;2023-08-01T13:58:52;7.03;;;4.95;;
71148;SDS011;59072;42.144;25.200;2023-08-01T14:01:22;7.28;;;6.13;;
71148;SDS011;59072;42.144;25.200;2023-08-01T14:03:47;9.55;;;7.43;;
71148;SDS011;59072;42.144;25.200;2023-08-01T14:06:13;7.22;;;5.82;;
71148;SDS011;59072;42.144;25.200;2023-08-01T14:08:41;7.00;;;5.50;;
71148;SDS011;59072;42.144;25.200;2023-08-01T14:11:07;7.25;;;6.13;;
71148;SDS011;59072;42.144;25.200;2023-08-01T14:13:36;6.72;;;5.43;;
71148;SDS011;59072;42.144;25.200;2023-08-01T14:16:04;7.00;;;5.63;;
71148;SDS011;59072;42.144;25.200;2023-08-01T14:18:32;8.13;;;6.00;;
71148;SDS011;59072;42.144;25.200;2023-08-01T14:20:58;6.65;;;5.68;;
71148;SDS011;59072;42.144;25.200;2023-08-01T14:23:24;10.55;;;7.05;;
71148;SDS011;59072;42.144;25.200;2023-08-01T14:25:51;6.40;;;5.60;;
71148;SDS011;59072;42.144;25.200;2023-08-01T14:28:17;6.78;;;5.78;;
71148;SDS011;59072;42.144;25.200;2023-08-01T14:30:46;7.03;;;6.15;;
71148;SDS011;59072;42.144;25.200;2023-08-01T14:33:12;7.57;;;5.60;;
71148;SDS011;59072;42.144;25.200;2023-08-01T14:35:39;7.18;;;5.60;;